sensor_id;sensor_type;location;lat;lon;timestamp;temperature;humidity
3850;DHT22;1940;51.052;13.678;2024-02-15T00:01:07;10.00;92.30
3850;DHT22;1940;51.052;13.678;2024-02-15T00:03:32;9.90;92.30
3850;DHT22;1940;51.052;13.678;2024-02-15T00:05:58;9.90;92.40
3850;DHT22;1940;51.052;13.678;2024-02-15T00:08:24;9.90;92.40
3850;DHT22;1940;51.052;13.678;2024-02-15T00:10:52;9.80;92.60
3850;DHT22;1940;51.052;13.678;2024-02-15T00:13:18;9.80;92.80
3850;DHT22;1940;51.052;13.678;2024-02-15T00:15:44;9.80;92.80
3850;DHT22;1940;51.052;13.678;2024-02-15T00:18:14;9.80;92.60
3850;DHT22;1940;51.052;13.678;2024-02-15T00:20:39;9.80;92.80
3850;DHT22;1940;51.052;13.678;2024-02-15T00:23:05;9.80;92.80
3850;DHT22;1940;51.052;13.678;2024-02-15T00:25:32;9.70;92.60
3850;DHT22;1940;51.052;13.678;2024-02-15T00:27:57;9.70;92.70
3850;DHT22;1940;51.052;13.678;2024-02-15T00:30:25;9.70;92.70
3850;DHT22;1940;51.052;13.678;2024-02-15T00:32:52;9.70;92.70
3850;DHT22;1940;51.052;13.678;2024-02-15T00:35:17;9.70;92.70
3850;DHT22;1940;51.052;13.678;2024-02-15T00:37:43;9.70;92.80
3850;DHT22;1940;51.052;13.678;2024-02-15T00:40:10;9.70;92.80
3850;DHT22;1940;51.052;13.678;2024-02-15T00:42:36;9.70;92.80
3850;DHT22;1940;51.052;13.678;2024-02-15T00:45:03;9.80;92.80
3850;DHT22;1940;51.052;13.678;2024-02-15T00:47:28;9.70;92.60
3850;DHT22;1940;51.052;13.678;2024-02-15T00:49:54;9.70;92.90
3850;DHT22;1940;51.052;13.678;2024-02-15T00:52:19;9.70;92.80
3850;DHT22;1940;51.052;13.678;2024-02-15T00:54:45;9.70;92.90
3850;DHT22;1940;51.052;13.678;2024-02-15T00:57:11;9.70;93.00
3850;DHT22;1940;51.052;13.678;2024-02-15T00:59:37;9.60;93.00
3850;DHT22;1940;51.052;13.678;2024-02-15T01:02:03;9.60;93.20
3850;DHT22;1940;51.052;13.678;2024-02-15T01:04:29;9.60;93.20
3850;DHT22;1940;51.052;13.678;2024-02-15T01:06:55;9.60;93.40
3850;DHT22;1940;51.052;13.678;2024-02-15T01:09:22;9.60;93.40
3850;DHT22;1940;51.052;13.678;2024-02-15T01:11:47;9.60;93.50
3850;DHT22;1940;51.052;13.678;2024-02-15T01:14:14;9.50;93.50
3850;DHT22;1940;51.052;13.678;2024-02-15T01:16:41;9.60;93.60
3850;DHT22;1940;51.052;13.678;2024-02-15T01:19:06;9.60;93.60
3850;DHT22;1940;51.052;13.678;2024-02-15T01:21:32;9.60;93.50
3850;DHT22;1940;51.052;13.678;2024-02-15T01:23:58;9.60;93.60
3850;DHT22;1940;51.052;13.678;2024-02-15T01:26:26;9.60;93.60
3850;DHT22;1940;51.052;13.678;2024-02-15T01:28:52;9.60;93.70
3850;DHT22;1940;51.052;13.678;2024-02-15T01:31:17;9.70;93.60
3850;DHT22;1940;51.052;13.678;2024-02-15T01:33:44;9.70;93.60
3850;DHT22;1940;51.052;13.678;2024-02-15T01:36:14;9.80;93.50
3850;DHT22;1940;51.052;13.678;2024-02-15T01:38:40;9.70;93.60
3850;DHT22;1940;51.052;13.678;2024-02-15T01:41:07;9.80;93.70
3850;DHT22;1940;51.052;13.678;2024-02-15T01:43:32;9.80;93.80
3850;DHT22;1940;51.052;13.678;2024-02-15T01:45:58;9.90;93.70
3850;DHT22;1940;51.052;13.678;2024-02-15T01:48:27;9.90;93.60
3850;DHT22;1940;51.052;13.678;2024-02-15T01:50:52;10.00;93.70
3850;DHT22;1940;51.052;13.678;2024-02-15T01:53:19;10.10;93.70
3850;DHT22;1940;51.052;13.678;2024-02-15T01:55:45;10.10;93.80
3850;DHT22;1940;51.052;13.678;2024-02-15T01:58:10;10.20;93.80
3850;DHT22;1940;51.052;13.678;2024-02-15T02:00:36;10.20;93.60
3850;DHT22;1940;51.052;13.678;2024-02-15T02:03:05;10.30;93.60
3850;DHT22;1940;51.052;13.678;2024-02-15T02:05:31;10.30;93.10
3850;DHT22;1940;51.052;13.678;2024-02-15T02:07:57;10.10;92.70
3850;DHT22;1940;51.052;13.678;2024-02-15T02:10:29;10.00;92.60
3850;DHT22;1940;51.052;13.678;2024-02-15T02:12:59;10.00;92.80
3850;DHT22;1940;51.052;13.678;2024-02-15T02:15:25;9.80;92.60
3850;DHT22;1940;51.052;13.678;2024-02-15T02:17:50;9.70;93.00
3850;DHT22;1940;51.052;13.678;2024-02-15T02:20:18;9.50;93.30
3850;DHT22;1940;51.052;13.678;2024-02-15T02:22:48;9.40;93.90
3850;DHT22;1940;51.052;13.678;2024-02-15T02:25:16;9.40;94.20
3850;DHT22;1940;51.052;13.678;2024-02-15T02:27:41;9.40;94.20
3850;DHT22;1940;51.052;13.678;2024-02-15T02:30:15;9.50;94.20
3850;DHT22;1940;51.052;13.678;2024-02-15T02:32:41;9.50;94.20
3850;DHT22;1940;51.052;13.678;2024-02-15T02:35:07;9.50;94.10
3850;DHT22;1940;51.052;13.678;2024-02-15T02:37:33;9.60;94.00
3850;DHT22;1940;51.052;13.678;2024-02-15T02:40:00;9.70;94.00
3850;DHT22;1940;51.052;13.678;2024-02-15T02:42:26;9.70;93.80
3850;DHT22;1940;51.052;13.678;2024-02-15T02:44:51;9.80;93.70
3850;DHT22;1940;51.052;13.678;2024-02-15T02:47:17;9.80;93.60
3850;DHT22;1940;51.052;13.678;2024-02-15T02:49:42;9.90;93.50
3850;DHT22;1940;51.052;13.678;2024-02-15T02:52:08;9.80;93.50
3850;DHT22;1940;51.052;13.678;2024-02-15T02:54:33;9.80;93.60
3850;DHT22;1940;51.052;13.678;2024-02-15T02:57:00;9.80;93.70
3850;DHT22;1940;51.052;13.678;2024-02-15T02:59:25;9.90;93.60
3850;DHT22;1940;51.052;13.678;2024-02-15T03:01:51;9.90;93.40
3850;DHT22;1940;51.052;13.678;2024-02-15T03:04:16;9.80;93.60
3850;DHT22;1940;51.052;13.678;2024-02-15T03:06:45;9.80;93.60
3850;DHT22;1940;51.052;13.678;2024-02-15T03:09:11;9.70;93.80
3850;DHT22;1940;51.052;13.678;2024-02-15T03:11:39;9.70;93.90
3850;DHT22;1940;51.052;13.678;2024-02-15T03:14:05;9.60;93.90
3850;DHT22;1940;51.052;13.678;2024-02-15T03:16:31;9.60;93.90
3850;DHT22;1940;51.052;13.678;2024-02-15T03:18:57;9.60;94.00
3850;DHT22;1940;51.052;13.678;2024-02-15T03:21:22;9.60;94.10
3850;DHT22;1940;51.052;13.678;2024-02-15T03:23:48;9.60;94.10
3850;DHT22;1940;51.052;13.678;2024-02-15T03:26:13;9.70;94.10
3850;DHT22;1940;51.052;13.678;2024-02-15T03:28:39;9.70;93.90
3850;DHT22;1940;51.052;13.678;2024-02-15T03:31:05;9.70;94.00
3850;DHT22;1940;51.052;13.678;2024-02-15T03:33:30;9.80;94.10
3850;DHT22;1940;51.052;13.678;2024-02-15T03:36:00;9.80;94.00
3850;DHT22;1940;51.052;13.678;2024-02-15T03:38:26;9.80;94.10
3850;DHT22;1940;51.052;13.678;2024-02-15T03:40:52;9.80;94.10
3850;DHT22;1940;51.052;13.678;2024-02-15T03:43:17;9.80;93.90
3850;DHT22;1940;51.052;13.678;2024-02-15T03:45:43;9.70;93.90
3850;DHT22;1940;51.052;13.678;2024-02-15T03:48:10;9.70;93.90
3850;DHT22;1940;51.052;13.678;2024-02-15T03:50:35;9.50;94.40
3850;DHT22;1940;51.052;13.678;2024-02-15T03:53:02;9.50;94.60
3850;DHT22;1940;51.052;13.678;2024-02-15T03:55:28;9.60;94.70
3850;DHT22;1940;51.052;13.678;2024-02-15T03:57:53;9.60;94.50
3850;DHT22;1940;51.052;13.678;2024-02-15T04:00:20;9.70;94.50
3850;DHT22;1940;51.052;13.678;2024-02-15T04:02:46;9.60;94.60
3850;DHT22;1940;51.052;13.678;2024-02-15T04:05:14;9.60;94.50
3850;DHT22;1940;51.052;13.678;2024-02-15T04:07:40;9.70;94.50
3850;DHT22;1940;51.052;13.678;2024-02-15T04:10:06;9.70;94.50
3850;DHT22;1940;51.052;13.678;2024-02-15T04:12:32;9.70;94.50
3850;DHT22;1940;51.052;13.678;2024-02-15T04:14:58;9.80;94.50
3850;DHT22;1940;51.052;13.678;2024-02-15T04:17:40;9.70;94.40
3850;DHT22;1940;51.052;13.678;2024-02-15T04:20:06;9.80;94.50
3850;DHT22;1940;51.052;13.678;2024-02-15T04:22:32;9.80;94.40
3850;DHT22;1940;51.052;13.678;2024-02-15T04:25:10;9.90;94.30
3850;DHT22;1940;51.052;13.678;2024-02-15T04:27:36;10.00;94.20
3850;DHT22;1940;51.052;13.678;2024-02-15T04:30:05;10.00;93.90
3850;DHT22;1940;51.052;13.678;2024-02-15T04:32:32;10.00;93.80
3850;DHT22;1940;51.052;13.678;2024-02-15T04:35:00;10.00;93.70
3850;DHT22;1940;51.052;13.678;2024-02-15T04:37:25;10.00;93.70
3850;DHT22;1940;51.052;13.678;2024-02-15T04:39:54;9.90;93.80
3850;DHT22;1940;51.052;13.678;2024-02-15T04:42:19;9.90;93.90
3850;DHT22;1940;51.052;13.678;2024-02-15T04:44:45;9.90;94.00
3850;DHT22;1940;51.052;13.678;2024-02-15T04:47:11;9.90;94.00
3850;DHT22;1940;51.052;13.678;2024-02-15T04:49:36;9.90;94.00
3850;DHT22;1940;51.052;13.678;2024-02-15T04:52:05;10.00;93.90
3850;DHT22;1940;51.052;13.678;2024-02-15T04:54:31;10.00;93.90
3850;DHT22;1940;51.052;13.678;2024-02-15T04:56:58;10.00;93.80
3850;DHT22;1940;51.052;13.678;2024-02-15T04:59:23;10.10;93.70
3850;DHT22;1940;51.052;13.678;2024-02-15T05:01:52;10.10;93.80
3850;DHT22;1940;51.052;13.678;2024-02-15T05:04:19;10.10;93.70
3850;DHT22;1940;51.052;13.678;2024-02-15T05:06:44;10.10;93.70
3850;DHT22;1940;51.052;13.678;2024-02-15T05:09:10;10.10;93.70
3850;DHT22;1940;51.052;13.678;2024-02-15T05:11:40;10.20;93.60
3850;DHT22;1940;51.052;13.678;2024-02-15T05:14:07;10.20;93.60
3850;DHT22;1940;51.052;13.678;2024-02-15T05:16:33;10.20;93.30
3850;DHT22;1940;51.052;13.678;2024-02-15T05:18:59;10.20;93.30
3850;DHT22;1940;51.052;13.678;2024-02-15T05:21:25;10.10;93.40
3850;DHT22;1940;51.052;13.678;2024-02-15T05:23:50;10.10;93.20
3850;DHT22;1940;51.052;13.678;2024-02-15T05:26:17;10.10;93.30
3850;DHT22;1940;51.052;13.678;2024-02-15T05:28:48;10.00;93.40
3850;DHT22;1940;51.052;13.678;2024-02-15T05:31:17;10.00;93.50
3850;DHT22;1940;51.052;13.678;2024-02-15T05:33:43;10.00;93.60
3850;DHT22;1940;51.052;13.678;2024-02-15T05:36:17;9.90;93.80
3850;DHT22;1940;51.052;13.678;2024-02-15T05:38:47;9.80;94.00
3850;DHT22;1940;51.052;13.678;2024-02-15T05:41:12;9.80;94.30
3850;DHT22;1940;51.052;13.678;2024-02-15T05:43:42;9.80;94.40
3850;DHT22;1940;51.052;13.678;2024-02-15T05:46:08;9.80;94.40
3850;DHT22;1940;51.052;13.678;2024-02-15T05:48:34;9.80;94.50
3850;DHT22;1940;51.052;13.678;2024-02-15T05:51:01;9.80;94.60
3850;DHT22;1940;51.052;13.678;2024-02-15T05:53:27;9.80;94.50
3850;DHT22;1940;51.052;13.678;2024-02-15T05:55:53;9.80;94.70
3850;DHT22;1940;51.052;13.678;2024-02-15T05:58:18;9.90;94.50
3850;DHT22;1940;51.052;13.678;2024-02-15T06:00:44;10.00;94.50
3850;DHT22;1940;51.052;13.678;2024-02-15T06:03:10;10.00;94.40
3850;DHT22;1940;51.052;13.678;2024-02-15T06:05:36;10.10;94.20
3850;DHT22;1940;51.052;13.678;2024-02-15T06:08:02;10.00;94.10
3850;DHT22;1940;51.052;13.678;2024-02-15T06:10:27;10.10;94.20
3850;DHT22;1940;51.052;13.678;2024-02-15T06:12:55;10.10;93.90
3850;DHT22;1940;51.052;13.678;2024-02-15T06:15:21;10.10;94.00
3850;DHT22;1940;51.052;13.678;2024-02-15T06:17:48;10.10;94.20
3850;DHT22;1940;51.052;13.678;2024-02-15T06:20:15;10.10;94.50
3850;DHT22;1940;51.052;13.678;2024-02-15T06:22:46;10.10;94.20
3850;DHT22;1940;51.052;13.678;2024-02-15T06:25:12;10.20;94.00
3850;DHT22;1940;51.052;13.678;2024-02-15T06:27:39;10.20;93.90
3850;DHT22;1940;51.052;13.678;2024-02-15T06:30:12;10.10;94.00
3850;DHT22;1940;51.052;13.678;2024-02-15T06:32:57;10.00;94.30
3850;DHT22;1940;51.052;13.678;2024-02-15T06:35:41;10.10;94.60
3850;DHT22;1940;51.052;13.678;2024-02-15T06:38:25;10.00;94.50
3850;DHT22;1940;51.052;13.678;2024-02-15T06:41:09;10.00;94.70
3850;DHT22;1940;51.052;13.678;2024-02-15T06:43:35;10.00;94.70
3850;DHT22;1940;51.052;13.678;2024-02-15T06:46:02;10.00;94.60
3850;DHT22;1940;51.052;13.678;2024-02-15T06:48:28;10.00;94.90
3850;DHT22;1940;51.052;13.678;2024-02-15T06:50:53;10.10;94.60
3850;DHT22;1940;51.052;13.678;2024-02-15T06:53:19;10.00;94.70
3850;DHT22;1940;51.052;13.678;2024-02-15T06:55:46;10.10;94.80
3850;DHT22;1940;51.052;13.678;2024-02-15T06:58:15;10.00;94.80
3850;DHT22;1940;51.052;13.678;2024-02-15T07:00:41;10.00;95.00
3850;DHT22;1940;51.052;13.678;2024-02-15T07:03:08;10.00;94.90
3850;DHT22;1940;51.052;13.678;2024-02-15T07:05:33;10.00;95.00
3850;DHT22;1940;51.052;13.678;2024-02-15T07:07:59;10.00;95.10
3850;DHT22;1940;51.052;13.678;2024-02-15T07:10:24;10.10;95.10
3850;DHT22;1940;51.052;13.678;2024-02-15T07:12:50;10.10;95.20
3850;DHT22;1940;51.052;13.678;2024-02-15T07:15:16;10.10;95.20
3850;DHT22;1940;51.052;13.678;2024-02-15T07:17:42;10.20;95.00
3850;DHT22;1940;51.052;13.678;2024-02-15T07:20:10;10.30;94.90
3850;DHT22;1940;51.052;13.678;2024-02-15T07:22:36;10.30;94.90
3850;DHT22;1940;51.052;13.678;2024-02-15T07:25:04;10.40;95.00
3850;DHT22;1940;51.052;13.678;2024-02-15T07:27:30;10.50;94.90
3850;DHT22;1940;51.052;13.678;2024-02-15T07:29:55;10.70;94.70
3850;DHT22;1940;51.052;13.678;2024-02-15T07:32:21;10.70;94.40
3850;DHT22;1940;51.052;13.678;2024-02-15T07:34:47;10.80;94.00
3850;DHT22;1940;51.052;13.678;2024-02-15T07:37:13;10.80;93.80
3850;DHT22;1940;51.052;13.678;2024-02-15T07:39:41;10.90;93.50
3850;DHT22;1940;51.052;13.678;2024-02-15T07:42:06;10.90;93.30
3850;DHT22;1940;51.052;13.678;2024-02-15T07:44:34;10.90;93.20
3850;DHT22;1940;51.052;13.678;2024-02-15T07:47:02;11.00;93.20
3850;DHT22;1940;51.052;13.678;2024-02-15T07:49:28;11.10;93.10
3850;DHT22;1940;51.052;13.678;2024-02-15T07:51:53;11.20;93.00
3850;DHT22;1940;51.052;13.678;2024-02-15T07:54:20;11.20;92.50
3850;DHT22;1940;51.052;13.678;2024-02-15T07:56:49;11.30;92.30
3850;DHT22;1940;51.052;13.678;2024-02-15T07:59:15;11.20;92.10
3850;DHT22;1940;51.052;13.678;2024-02-15T08:01:42;11.20;92.10
3850;DHT22;1940;51.052;13.678;2024-02-15T08:04:08;11.20;92.00
3850;DHT22;1940;51.052;13.678;2024-02-15T08:06:34;11.20;91.80
3850;DHT22;1940;51.052;13.678;2024-02-15T08:09:02;11.20;91.90
3850;DHT22;1940;51.052;13.678;2024-02-15T08:11:30;11.20;91.60
3850;DHT22;1940;51.052;13.678;2024-02-15T08:13:56;11.30;91.40
3850;DHT22;1940;51.052;13.678;2024-02-15T08:16:25;11.20;91.30
3850;DHT22;1940;51.052;13.678;2024-02-15T08:18:53;11.20;91.50
3850;DHT22;1940;51.052;13.678;2024-02-15T08:21:30;11.30;91.60
3850;DHT22;1940;51.052;13.678;2024-02-15T08:24:01;11.40;91.50
3850;DHT22;1940;51.052;13.678;2024-02-15T08:26:35;11.50;91.50
3850;DHT22;1940;51.052;13.678;2024-02-15T08:29:01;11.60;91.60
3850;DHT22;1940;51.052;13.678;2024-02-15T08:31:28;11.70;91.70
3850;DHT22;1940;51.052;13.678;2024-02-15T08:33:54;11.90;90.90
3850;DHT22;1940;51.052;13.678;2024-02-15T08:36:19;12.50;91.20
3850;DHT22;1940;51.052;13.678;2024-02-15T08:38:46;13.90;87.60
3850;DHT22;1940;51.052;13.678;2024-02-15T08:41:12;15.10;80.90
3850;DHT22;1940;51.052;13.678;2024-02-15T08:43:38;16.20;78.60
3850;DHT22;1940;51.052;13.678;2024-02-15T08:46:05;17.60;74.10
3850;DHT22;1940;51.052;13.678;2024-02-15T08:48:31;19.00;70.60
3850;DHT22;1940;51.052;13.678;2024-02-15T08:50:57;20.00;67.60
3850;DHT22;1940;51.052;13.678;2024-02-15T08:53:23;20.80;65.50
3850;DHT22;1940;51.052;13.678;2024-02-15T08:55:49;21.00;64.80
3850;DHT22;1940;51.052;13.678;2024-02-15T08:58:15;20.80;63.90
3850;DHT22;1940;51.052;13.678;2024-02-15T09:00:40;19.80;66.00
3850;DHT22;1940;51.052;13.678;2024-02-15T09:03:11;19.30;67.10
3850;DHT22;1940;51.052;13.678;2024-02-15T09:05:38;18.20;69.60
3850;DHT22;1940;51.052;13.678;2024-02-15T09:08:03;17.80;71.20
3850;DHT22;1940;51.052;13.678;2024-02-15T09:10:30;17.70;71.50
3850;DHT22;1940;51.052;13.678;2024-02-15T09:12:55;17.30;72.10
3850;DHT22;1940;51.052;13.678;2024-02-15T09:15:21;16.50;74.50
3850;DHT22;1940;51.052;13.678;2024-02-15T09:17:47;15.80;76.40
3850;DHT22;1940;51.052;13.678;2024-02-15T09:20:14;15.50;77.30
3850;DHT22;1940;51.052;13.678;2024-02-15T09:22:52;15.20;78.40
3850;DHT22;1940;51.052;13.678;2024-02-15T09:25:20;15.00;79.40
3850;DHT22;1940;51.052;13.678;2024-02-15T09:27:46;14.80;80.20
3850;DHT22;1940;51.052;13.678;2024-02-15T09:30:12;14.70;81.10
3850;DHT22;1940;51.052;13.678;2024-02-15T09:32:41;14.50;81.50
3850;DHT22;1940;51.052;13.678;2024-02-15T09:35:08;14.40;82.40
3850;DHT22;1940;51.052;13.678;2024-02-15T09:37:38;14.50;82.30
3850;DHT22;1940;51.052;13.678;2024-02-15T09:40:10;14.50;81.80
3850;DHT22;1940;51.052;13.678;2024-02-15T09:42:37;14.50;81.90
3850;DHT22;1940;51.052;13.678;2024-02-15T09:45:04;14.50;81.70
3850;DHT22;1940;51.052;13.678;2024-02-15T09:47:34;14.50;81.90
3850;DHT22;1940;51.052;13.678;2024-02-15T09:50:02;14.60;81.50
3850;DHT22;1940;51.052;13.678;2024-02-15T09:52:29;14.60;81.80
3850;DHT22;1940;51.052;13.678;2024-02-15T09:54:58;14.60;81.50
3850;DHT22;1940;51.052;13.678;2024-02-15T09:57:24;14.60;81.10
3850;DHT22;1940;51.052;13.678;2024-02-15T09:59:49;14.60;81.40
3850;DHT22;1940;51.052;13.678;2024-02-15T10:02:15;14.60;81.50
3850;DHT22;1940;51.052;13.678;2024-02-15T10:04:41;14.60;81.20
3850;DHT22;1940;51.052;13.678;2024-02-15T10:07:07;14.60;81.10
3850;DHT22;1940;51.052;13.678;2024-02-15T10:09:36;14.50;81.20
3850;DHT22;1940;51.052;13.678;2024-02-15T10:12:03;14.50;81.80
3850;DHT22;1940;51.052;13.678;2024-02-15T10:14:32;14.50;81.90
3850;DHT22;1940;51.052;13.678;2024-02-15T10:17:06;14.50;81.80
3850;DHT22;1940;51.052;13.678;2024-02-15T10:19:35;14.60;81.60
3850;DHT22;1940;51.052;13.678;2024-02-15T10:22:07;14.80;80.80
3850;DHT22;1940;51.052;13.678;2024-02-15T10:24:32;14.80;80.80
3850;DHT22;1940;51.052;13.678;2024-02-15T10:27:02;14.90;80.40
3850;DHT22;1940;51.052;13.678;2024-02-15T10:29:29;14.90;80.30
3850;DHT22;1940;51.052;13.678;2024-02-15T10:31:59;15.00;80.50
3850;DHT22;1940;51.052;13.678;2024-02-15T10:34:25;15.10;80.10
3850;DHT22;1940;51.052;13.678;2024-02-15T10:36:53;15.00;80.10
3850;DHT22;1940;51.052;13.678;2024-02-15T10:39:19;15.00;80.20
3850;DHT22;1940;51.052;13.678;2024-02-15T10:41:46;15.00;80.50
3850;DHT22;1940;51.052;13.678;2024-02-15T10:44:19;15.10;80.30
3850;DHT22;1940;51.052;13.678;2024-02-15T10:46:46;15.10;80.10
3850;DHT22;1940;51.052;13.678;2024-02-15T10:49:22;15.20;80.00
3850;DHT22;1940;51.052;13.678;2024-02-15T10:51:55;15.60;79.70
3850;DHT22;1940;51.052;13.678;2024-02-15T10:54:40;16.00;77.70
3850;DHT22;1940;51.052;13.678;2024-02-15T10:57:09;16.20;77.00
3850;DHT22;1940;51.052;13.678;2024-02-15T10:59:35;16.20;76.60
3850;DHT22;1940;51.052;13.678;2024-02-15T11:02:22;16.20;77.00
3850;DHT22;1940;51.052;13.678;2024-02-15T11:04:52;16.10;76.80
3850;DHT22;1940;51.052;13.678;2024-02-15T11:07:25;16.10;77.10
3850;DHT22;1940;51.052;13.678;2024-02-15T11:09:54;15.90;77.40
3850;DHT22;1940;51.052;13.678;2024-02-15T11:12:22;15.70;78.20
3850;DHT22;1940;51.052;13.678;2024-02-15T11:14:49;15.70;78.50
3850;DHT22;1940;51.052;13.678;2024-02-15T11:23:02;16.80;76.10
3850;DHT22;1940;51.052;13.678;2024-02-15T11:25:35;17.30;74.50
3850;DHT22;1940;51.052;13.678;2024-02-15T11:30:50;18.00;72.50
3850;DHT22;1940;51.052;13.678;2024-02-15T11:33:35;17.90;72.10
3850;DHT22;1940;51.052;13.678;2024-02-15T11:36:08;18.00;71.90
3850;DHT22;1940;51.052;13.678;2024-02-15T11:38:36;17.90;71.60
3850;DHT22;1940;51.052;13.678;2024-02-15T11:41:05;18.00;71.90
3850;DHT22;1940;51.052;13.678;2024-02-15T11:46:16;18.30;70.60
3850;DHT22;1940;51.052;13.678;2024-02-15T11:48:45;18.50;70.80
3850;DHT22;1940;51.052;13.678;2024-02-15T11:51:24;18.40;70.60
3850;DHT22;1940;51.052;13.678;2024-02-15T11:54:07;18.30;71.30
3850;DHT22;1940;51.052;13.678;2024-02-15T11:56:56;18.10;70.80
3850;DHT22;1940;51.052;13.678;2024-02-15T11:59:42;17.80;72.20
3850;DHT22;1940;51.052;13.678;2024-02-15T12:02:20;17.80;72.50
3850;DHT22;1940;51.052;13.678;2024-02-15T12:05:05;17.70;72.90
3850;DHT22;1940;51.052;13.678;2024-02-15T12:07:49;17.30;73.30
3850;DHT22;1940;51.052;13.678;2024-02-15T12:10:33;17.30;73.70
3850;DHT22;1940;51.052;13.678;2024-02-15T12:13:18;17.10;73.80
3850;DHT22;1940;51.052;13.678;2024-02-15T12:16:03;16.90;74.50
3850;DHT22;1940;51.052;13.678;2024-02-15T12:18:48;16.90;74.90
3850;DHT22;1940;51.052;13.678;2024-02-15T12:21:19;16.80;74.80
3850;DHT22;1940;51.052;13.678;2024-02-15T12:23:48;16.70;75.30
3850;DHT22;1940;51.052;13.678;2024-02-15T12:26:18;16.60;76.00
3850;DHT22;1940;51.052;13.678;2024-02-15T12:28:49;16.50;76.00
3850;DHT22;1940;51.052;13.678;2024-02-15T12:31:15;16.60;75.90
3850;DHT22;1940;51.052;13.678;2024-02-15T12:33:40;16.40;76.10
3850;DHT22;1940;51.052;13.678;2024-02-15T12:36:06;16.30;76.60
3850;DHT22;1940;51.052;13.678;2024-02-15T12:38:32;16.20;76.70
3850;DHT22;1940;51.052;13.678;2024-02-15T12:40:59;16.20;76.90
3850;DHT22;1940;51.052;13.678;2024-02-15T12:43:26;16.20;76.70
3850;DHT22;1940;51.052;13.678;2024-02-15T12:45:51;16.20;76.90
3850;DHT22;1940;51.052;13.678;2024-02-15T12:48:19;16.30;76.80
3850;DHT22;1940;51.052;13.678;2024-02-15T12:50:45;16.30;76.30
3850;DHT22;1940;51.052;13.678;2024-02-15T12:53:11;16.30;76.20
3850;DHT22;1940;51.052;13.678;2024-02-15T12:55:39;16.30;76.20
3850;DHT22;1940;51.052;13.678;2024-02-15T12:58:07;16.30;76.40
3850;DHT22;1940;51.052;13.678;2024-02-15T13:00:36;16.30;76.20
3850;DHT22;1940;51.052;13.678;2024-02-15T13:03:05;16.20;76.50
3850;DHT22;1940;51.052;13.678;2024-02-15T13:05:34;16.20;76.40
3850;DHT22;1940;51.052;13.678;2024-02-15T13:08:00;16.10;76.90
3850;DHT22;1940;51.052;13.678;2024-02-15T13:10:29;16.20;76.70
3850;DHT22;1940;51.052;13.678;2024-02-15T13:12:55;16.30;76.40
3850;DHT22;1940;51.052;13.678;2024-02-15T13:15:22;16.40;76.30
3850;DHT22;1940;51.052;13.678;2024-02-15T13:17:55;16.50;75.90
3850;DHT22;1940;51.052;13.678;2024-02-15T13:20:22;16.40;75.50
3850;DHT22;1940;51.052;13.678;2024-02-15T13:22:57;16.40;75.90
3850;DHT22;1940;51.052;13.678;2024-02-15T13:25:25;16.50;76.00
3850;DHT22;1940;51.052;13.678;2024-02-15T13:27:51;16.70;75.00
3850;DHT22;1940;51.052;13.678;2024-02-15T13:30:17;16.70;75.00
3850;DHT22;1940;51.052;13.678;2024-02-15T13:32:48;16.80;74.40
3850;DHT22;1940;51.052;13.678;2024-02-15T13:35:14;16.90;74.70
3850;DHT22;1940;51.052;13.678;2024-02-15T13:37:46;17.00;74.20
3850;DHT22;1940;51.052;13.678;2024-02-15T13:40:12;17.00;74.20
3850;DHT22;1940;51.052;13.678;2024-02-15T13:42:44;17.00;74.20
3850;DHT22;1940;51.052;13.678;2024-02-15T13:45:20;16.90;73.80
3850;DHT22;1940;51.052;13.678;2024-02-15T13:47:48;16.90;74.10
3850;DHT22;1940;51.052;13.678;2024-02-15T13:50:14;17.10;73.80
3850;DHT22;1940;51.052;13.678;2024-02-15T13:52:44;17.20;73.60
3850;DHT22;1940;51.052;13.678;2024-02-15T13:55:14;17.30;73.30
3850;DHT22;1940;51.052;13.678;2024-02-15T13:57:41;17.30;72.80
3850;DHT22;1940;51.052;13.678;2024-02-15T14:00:08;17.30;72.40
3850;DHT22;1940;51.052;13.678;2024-02-15T14:02:41;17.40;72.30
3850;DHT22;1940;51.052;13.678;2024-02-15T14:05:09;17.40;72.20
3850;DHT22;1940;51.052;13.678;2024-02-15T14:07:36;17.30;72.30
3850;DHT22;1940;51.052;13.678;2024-02-15T14:10:03;17.30;72.20
3850;DHT22;1940;51.052;13.678;2024-02-15T14:12:29;17.40;72.10
3850;DHT22;1940;51.052;13.678;2024-02-15T14:14:55;17.30;72.30
3850;DHT22;1940;51.052;13.678;2024-02-15T14:17:21;17.10;72.50
3850;DHT22;1940;51.052;13.678;2024-02-15T14:19:48;17.00;72.90
3850;DHT22;1940;51.052;13.678;2024-02-15T14:22:13;16.90;73.50
3850;DHT22;1940;51.052;13.678;2024-02-15T14:24:42;16.80;73.80
3850;DHT22;1940;51.052;13.678;2024-02-15T14:27:09;16.80;73.80
3850;DHT22;1940;51.052;13.678;2024-02-15T14:29:35;16.60;74.30
3850;DHT22;1940;51.052;13.678;2024-02-15T14:32:03;16.40;74.50
3850;DHT22;1940;51.052;13.678;2024-02-15T14:34:52;16.50;74.70
3850;DHT22;1940;51.052;13.678;2024-02-15T14:37:18;16.40;74.40
3850;DHT22;1940;51.052;13.678;2024-02-15T14:39:44;16.40;74.70
3850;DHT22;1940;51.052;13.678;2024-02-15T14:42:10;16.30;75.00
3850;DHT22;1940;51.052;13.678;2024-02-15T14:44:37;16.30;74.90
3850;DHT22;1940;51.052;13.678;2024-02-15T14:47:03;16.30;75.20
3850;DHT22;1940;51.052;13.678;2024-02-15T14:49:29;16.30;75.10
3850;DHT22;1940;51.052;13.678;2024-02-15T14:51:54;16.10;75.30
3850;DHT22;1940;51.052;13.678;2024-02-15T14:54:20;16.10;75.70
3850;DHT22;1940;51.052;13.678;2024-02-15T14:56:46;16.10;75.50
3850;DHT22;1940;51.052;13.678;2024-02-15T14:59:11;16.00;75.90
3850;DHT22;1940;51.052;13.678;2024-02-15T15:01:39;16.00;75.90
3850;DHT22;1940;51.052;13.678;2024-02-15T15:04:06;16.00;75.90
3850;DHT22;1940;51.052;13.678;2024-02-15T15:06:33;16.00;76.10
3850;DHT22;1940;51.052;13.678;2024-02-15T15:09:17;15.80;76.40
3850;DHT22;1940;51.052;13.678;2024-02-15T15:12:02;15.80;76.50
3850;DHT22;1940;51.052;13.678;2024-02-15T15:14:46;15.80;76.60
3850;DHT22;1940;51.052;13.678;2024-02-15T15:17:11;15.80;76.80
3850;DHT22;1940;51.052;13.678;2024-02-15T15:19:38;15.80;76.80
3850;DHT22;1940;51.052;13.678;2024-02-15T15:22:04;15.80;76.80
3850;DHT22;1940;51.052;13.678;2024-02-15T15:24:31;15.80;76.80
3850;DHT22;1940;51.052;13.678;2024-02-15T15:26:58;15.80;77.00
3850;DHT22;1940;51.052;13.678;2024-02-15T15:29:23;15.80;76.90
3850;DHT22;1940;51.052;13.678;2024-02-15T15:31:49;15.80;76.60
3850;DHT22;1940;51.052;13.678;2024-02-15T15:34:14;15.80;76.80
3850;DHT22;1940;51.052;13.678;2024-02-15T15:36:41;15.70;76.90
3850;DHT22;1940;51.052;13.678;2024-02-15T15:39:07;15.80;76.90
3850;DHT22;1940;51.052;13.678;2024-02-15T15:41:35;15.80;77.00
3850;DHT22;1940;51.052;13.678;2024-02-15T15:44:02;15.80;77.00
3850;DHT22;1940;51.052;13.678;2024-02-15T15:46:28;15.80;76.80
3850;DHT22;1940;51.052;13.678;2024-02-15T15:48:53;15.70;76.90
3850;DHT22;1940;51.052;13.678;2024-02-15T15:51:19;15.70;77.10
3850;DHT22;1940;51.052;13.678;2024-02-15T15:53:45;15.70;78.90
3850;DHT22;1940;51.052;13.678;2024-02-15T15:56:12;15.60;79.70
3850;DHT22;1940;51.052;13.678;2024-02-15T15:58:37;15.40;80.40
3850;DHT22;1940;51.052;13.678;2024-02-15T16:01:03;15.20;80.90
3850;DHT22;1940;51.052;13.678;2024-02-15T16:03:29;15.10;81.60
3850;DHT22;1940;51.052;13.678;2024-02-15T16:05:56;15.00;81.90